sensor_id;sensor_type;location;lat;lon;timestamp;P1;durP1;ratioP1;P2;durP2;ratioP2
43628;SDS011;56545;48.224;11.678;2023-05-07T00:00:41;8.25;;;4.97;;
43628;SDS011;56545;48.224;11.678;2023-05-07T00:03:07;7.32;;;4.75;;
43628;SDS011;56545;48.224;11.678;2023-05-07T00:05:33;7.60;;;4.75;;
43628;SDS011;56545;48.224;11.678;2023-05-07T00:07:59;7.43;;;4.53;;
43628;SDS011;56545;48.224;11.678;2023-05-07T00:10:25;8.70;;;4.70;;
43628;SDS011;56545;48.224;11.678;2023-05-07T00:12:51;9.07;;;4.95;;
43628;SDS011;56545;48.224;11.678;2023-05-07T00:15:17;8.70;;;5.47;;
43628;SDS011;56545;48.224;11.678;2023-05-07T00:17:43;7.82;;;5.03;;
43628;SDS011;56545;48.224;11.678;2023-05-07T00:20:09;10.10;;;5.30;;
43628;SDS011;56545;48.224;11.678;2023-05-07T00:22:35;7.20;;;4.95;;
43628;SDS011;56545;48.224;11.678;2023-05-07T00:25:01;8.70;;;5.03;;
43628;SDS011;56545;48.224;11.678;2023-05-07T00:27:27;12.05;;;5.55;;
43628;SDS011;56545;48.224;11.678;2023-05-07T00:29:53;8.27;;;5.65;;
43628;SDS011;56545;48.224;11.678;2023-05-07T00:32:19;9.00;;;5.97;;
43628;SDS011;56545;48.224;11.678;2023-05-07T00:34:45;8.40;;;4.93;;
43628;SDS011;56545;48.224;11.678;2023-05-07T00:37:11;8.65;;;6.07;;
43628;SDS011;56545;48.224;11.678;2023-05-07T00:39:37;9.27;;;5.88;;
43628;SDS011;56545;48.224;11.678;2023-05-07T00:42:03;8.93;;;6.05;;
43628;SDS011;56545;48.224;11.678;2023-05-07T00:44:29;9.48;;;6.70;;
43628;SDS011;56545;48.224;11.678;2023-05-07T00:46:58;9.80;;;6.05;;
43628;SDS011;56545;48.224;11.678;2023-05-07T00:49:27;9.20;;;5.85;;
43628;SDS011;56545;48.224;11.678;2023-05-07T00:52:07;8.45;;;6.20;;
43628;SDS011;56545;48.224;11.678;2023-05-07T00:54:34;8.80;;;6.30;;
43628;SDS011;56545;48.224;11.678;2023-05-07T00:57:01;8.88;;;5.80;;
43628;SDS011;56545;48.224;11.678;2023-05-07T00:59:28;8.48;;;5.70;;
43628;SDS011;56545;48.224;11.678;2023-05-07T01:01:55;8.35;;;5.50;;
43628;SDS011;56545;48.224;11.678;2023-05-07T01:04:21;9.43;;;6.20;;
43628;SDS011;56545;48.224;11.678;2023-05-07T01:06:47;8.38;;;6.05;;
43628;SDS011;56545;48.224;11.678;2023-05-07T01:09:15;7.80;;;5.90;;
43628;SDS011;56545;48.224;11.678;2023-05-07T01:11:41;9.77;;;6.60;;
43628;SDS011;56545;48.224;11.678;2023-05-07T01:14:08;9.07;;;5.85;;
43628;SDS011;56545;48.224;11.678;2023-05-07T01:16:35;8.40;;;6.28;;
43628;SDS011;56545;48.224;11.678;2023-05-07T01:19:01;10.65;;;6.93;;
43628;SDS011;56545;48.224;11.678;2023-05-07T01:21:27;9.95;;;7.43;;
43628;SDS011;56545;48.224;11.678;2023-05-07T01:23:57;10.57;;;6.90;;
43628;SDS011;56545;48.224;11.678;2023-05-07T01:26:24;10.98;;;7.13;;
43628;SDS011;56545;48.224;11.678;2023-05-07T01:28:50;10.82;;;7.25;;
43628;SDS011;56545;48.224;11.678;2023-05-07T01:31:16;9.63;;;7.55;;
43628;SDS011;56545;48.224;11.678;2023-05-07T01:33:42;12.50;;;8.43;;
43628;SDS011;56545;48.224;11.678;2023-05-07T01:36:11;11.15;;;8.75;;
43628;SDS011;56545;48.224;11.678;2023-05-07T01:38:38;14.98;;;9.23;;
43628;SDS011;56545;48.224;11.678;2023-05-07T01:41:06;12.05;;;9.85;;
43628;SDS011;56545;48.224;11.678;2023-05-07T01:43:32;12.23;;;9.05;;
43628;SDS011;56545;48.224;11.678;2023-05-07T01:45:58;11.77;;;8.95;;
43628;SDS011;56545;48.224;11.678;2023-05-07T01:48:26;11.60;;;8.85;;
43628;SDS011;56545;48.224;11.678;2023-05-07T01:50:52;11.70;;;8.88;;
43628;SDS011;56545;48.224;11.678;2023-05-07T01:53:18;11.35;;;9.02;;
43628;SDS011;56545;48.224;11.678;2023-05-07T01:55:44;11.48;;;8.80;;
43628;SDS011;56545;48.224;11.678;2023-05-07T01:58:10;12.18;;;9.38;;
43628;SDS011;56545;48.224;11.678;2023-05-07T02:00:36;10.75;;;9.02;;
43628;SDS011;56545;48.224;11.678;2023-05-07T02:03:02;11.10;;;8.30;;
43628;SDS011;56545;48.224;11.678;2023-05-07T02:05:28;11.35;;;8.38;;
43628;SDS011;56545;48.224;11.678;2023-05-07T02:07:53;11.75;;;8.20;;
43628;SDS011;56545;48.224;11.678;2023-05-07T02:10:19;10.93;;;7.53;;
43628;SDS011;56545;48.224;11.678;2023-05-07T02:12:45;11.65;;;7.57;;
43628;SDS011;56545;48.224;11.678;2023-05-07T02:15:11;9.90;;;7.88;;
43628;SDS011;56545;48.224;11.678;2023-05-07T02:17:57;9.68;;;7.40;;
43628;SDS011;56545;48.224;11.678;2023-05-07T02:22:57;10.05;;;7.93;;
43628;SDS011;56545;48.224;11.678;2023-05-07T02:25:23;9.00;;;7.43;;
43628;SDS011;56545;48.224;11.678;2023-05-07T02:27:49;9.52;;;7.28;;
43628;SDS011;56545;48.224;11.678;2023-05-07T02:30:15;10.25;;;8.27;;
43628;SDS011;56545;48.224;11.678;2023-05-07T02:32:41;12.27;;;7.40;;
43628;SDS011;56545;48.224;11.678;2023-05-07T02:35:07;11.68;;;7.47;;
43628;SDS011;56545;48.224;11.678;2023-05-07T02:37:33;10.88;;;7.18;;
43628;SDS011;56545;48.224;11.678;2023-05-07T02:39:59;9.35;;;7.15;;
43628;SDS011;56545;48.224;11.678;2023-05-07T02:42:24;10.68;;;7.10;;
43628;SDS011;56545;48.224;11.678;2023-05-07T02:44:50;12.63;;;7.90;;
43628;SDS011;56545;48.224;11.678;2023-05-07T02:47:16;10.70;;;7.20;;
43628;SDS011;56545;48.224;11.678;2023-05-07T02:49:42;9.63;;;6.95;;
43628;SDS011;56545;48.224;11.678;2023-05-07T02:52:08;9.82;;;6.72;;
43628;SDS011;56545;48.224;11.678;2023-05-07T02:54:34;10.32;;;7.10;;
43628;SDS011;56545;48.224;11.678;2023-05-07T02:57:00;9.93;;;7.15;;
43628;SDS011;56545;48.224;11.678;2023-05-07T02:59:27;10.13;;;7.68;;
43628;SDS011;56545;48.224;11.678;2023-05-07T03:01:52;10.27;;;7.00;;
43628;SDS011;56545;48.224;11.678;2023-05-07T03:04:18;9.63;;;7.55;;
43628;SDS011;56545;48.224;11.678;2023-05-07T03:06:45;9.15;;;6.85;;
43628;SDS011;56545;48.224;11.678;2023-05-07T03:09:11;10.85;;;6.80;;
43628;SDS011;56545;48.224;11.678;2023-05-07T03:11:37;8.73;;;6.15;;
43628;SDS011;56545;48.224;11.678;2023-05-07T03:14:03;10.18;;;6.60;;
43628;SDS011;56545;48.224;11.678;2023-05-07T03:16:29;8.95;;;6.35;;
43628;SDS011;56545;48.224;11.678;2023-05-07T03:18:55;9.98;;;6.43;;
43628;SDS011;56545;48.224;11.678;2023-05-07T03:21:20;9.88;;;6.65;;
43628;SDS011;56545;48.224;11.678;2023-05-07T03:23:46;8.93;;;6.03;;
43628;SDS011;56545;48.224;11.678;2023-05-07T03:26:12;8.32;;;6.15;;
43628;SDS011;56545;48.224;11.678;2023-05-07T03:28:38;9.20;;;6.20;;
43628;SDS011;56545;48.224;11.678;2023-05-07T03:31:04;9.63;;;6.43;;
43628;SDS011;56545;48.224;11.678;2023-05-07T03:33:32;10.00;;;6.60;;
43628;SDS011;56545;48.224;11.678;2023-05-07T03:35:59;14.05;;;6.32;;
43628;SDS011;56545;48.224;11.678;2023-05-07T03:38:26;8.95;;;5.80;;
43628;SDS011;56545;48.224;11.678;2023-05-07T03:40:51;8.48;;;5.63;;
43628;SDS011;56545;48.224;11.678;2023-05-07T03:43:17;8.00;;;6.20;;
43628;SDS011;56545;48.224;11.678;2023-05-07T03:45:43;8.95;;;5.95;;
43628;SDS011;56545;48.224;11.678;2023-05-07T03:48:09;8.13;;;5.45;;
43628;SDS011;56545;48.224;11.678;2023-05-07T03:50:35;8.88;;;5.65;;
43628;SDS011;56545;48.224;11.678;2023-05-07T03:53:01;10.63;;;5.40;;
43628;SDS011;56545;48.224;11.678;2023-05-07T03:55:27;9.02;;;6.20;;
43628;SDS011;56545;48.224;11.678;2023-05-07T03:57:53;8.73;;;5.43;;
43628;SDS011;56545;48.224;11.678;2023-05-07T04:00:19;9.82;;;5.88;;
43628;SDS011;56545;48.224;11.678;2023-05-07T04:02:45;10.13;;;5.40;;
43628;SDS011;56545;48.224;11.678;2023-05-07T04:05:12;8.38;;;5.68;;
43628;SDS011;56545;48.224;11.678;2023-05-07T04:07:39;8.38;;;5.47;;
43628;SDS011;56545;48.224;11.678;2023-05-07T04:10:05;8.25;;;5.32;;
43628;SDS011;56545;48.224;11.678;2023-05-07T04:12:31;7.68;;;5.80;;
43628;SDS011;56545;48.224;11.678;2023-05-07T04:14:56;8.25;;;5.47;;
43628;SDS011;56545;48.224;11.678;2023-05-07T04:17:22;8.13;;;5.53;;
43628;SDS011;56545;48.224;11.678;2023-05-07T04:19:48;9.18;;;5.78;;
43628;SDS011;56545;48.224;11.678;2023-05-07T04:22:14;9.65;;;5.53;;
43628;SDS011;56545;48.224;11.678;2023-05-07T04:24:40;9.23;;;5.07;;
43628;SDS011;56545;48.224;11.678;2023-05-07T04:27:06;9.52;;;5.43;;
43628;SDS011;56545;48.224;11.678;2023-05-07T04:29:32;8.43;;;5.43;;
43628;SDS011;56545;48.224;11.678;2023-05-07T04:31:58;9.50;;;5.45;;
43628;SDS011;56545;48.224;11.678;2023-05-07T04:34:24;7.97;;;4.90;;
43628;SDS011;56545;48.224;11.678;2023-05-07T04:36:50;7.70;;;5.32;;
43628;SDS011;56545;48.224;11.678;2023-05-07T04:39:16;8.88;;;5.53;;
43628;SDS011;56545;48.224;11.678;2023-05-07T04:41:42;8.48;;;5.47;;
43628;SDS011;56545;48.224;11.678;2023-05-07T04:44:08;7.57;;;5.38;;
43628;SDS011;56545;48.224;11.678;2023-05-07T04:46:34;7.78;;;5.03;;
43628;SDS011;56545;48.224;11.678;2023-05-07T04:49:00;7.90;;;5.20;;
43628;SDS011;56545;48.224;11.678;2023-05-07T04:51:26;8.13;;;5.32;;
43628;SDS011;56545;48.224;11.678;2023-05-07T04:53:52;9.15;;;5.38;;
43628;SDS011;56545;48.224;11.678;2023-05-07T04:56:18;7.93;;;5.63;;
43628;SDS011;56545;48.224;11.678;2023-05-07T04:58:45;8.73;;;6.05;;
43628;SDS011;56545;48.224;11.678;2023-05-07T05:01:11;8.82;;;6.50;;
43628;SDS011;56545;48.224;11.678;2023-05-07T05:03:37;8.50;;;6.43;;
43628;SDS011;56545;48.224;11.678;2023-05-07T05:06:04;10.82;;;7.90;;
43628;SDS011;56545;48.224;11.678;2023-05-07T05:08:30;9.65;;;7.68;;
43628;SDS011;56545;48.224;11.678;2023-05-07T05:10:56;9.20;;;7.50;;
43628;SDS011;56545;48.224;11.678;2023-05-07T05:13:22;9.27;;;7.28;;
43628;SDS011;56545;48.224;11.678;2023-05-07T05:15:48;10.90;;;7.30;;
43628;SDS011;56545;48.224;11.678;2023-05-07T05:18:14;10.10;;;6.47;;
43628;SDS011;56545;48.224;11.678;2023-05-07T05:20:40;10.23;;;7.18;;
43628;SDS011;56545;48.224;11.678;2023-05-07T05:23:07;8.40;;;6.35;;
43628;SDS011;56545;48.224;11.678;2023-05-07T05:25:33;8.63;;;5.95;;
43628;SDS011;56545;48.224;11.678;2023-05-07T05:27:59;8.55;;;5.68;;
43628;SDS011;56545;48.224;11.678;2023-05-07T05:30:24;7.72;;;4.90;;
43628;SDS011;56545;48.224;11.678;2023-05-07T05:32:50;8.25;;;5.10;;
43628;SDS011;56545;48.224;11.678;2023-05-07T05:35:16;8.25;;;5.47;;
43628;SDS011;56545;48.224;11.678;2023-05-07T05:37:42;8.00;;;5.30;;
43628;SDS011;56545;48.224;11.678;2023-05-07T05:40:08;10.13;;;5.65;;
43628;SDS011;56545;48.224;11.678;2023-05-07T05:42:34;7.45;;;5.13;;
43628;SDS011;56545;48.224;11.678;2023-05-07T05:45:00;8.57;;;5.03;;
43628;SDS011;56545;48.224;11.678;2023-05-07T05:47:26;9.55;;;5.03;;
43628;SDS011;56545;48.224;11.678;2023-05-07T05:49:52;8.45;;;5.13;;
43628;SDS011;56545;48.224;11.678;2023-05-07T05:52:18;6.75;;;4.70;;
43628;SDS011;56545;48.224;11.678;2023-05-07T05:54:44;6.50;;;4.57;;
43628;SDS011;56545;48.224;11.678;2023-05-07T05:57:10;7.13;;;4.63;;
43628;SDS011;56545;48.224;11.678;2023-05-07T05:59:36;6.63;;;4.60;;
43628;SDS011;56545;48.224;11.678;2023-05-07T06:02:02;8.75;;;4.70;;
43628;SDS011;56545;48.224;11.678;2023-05-07T06:04:28;7.20;;;4.95;;
43628;SDS011;56545;48.224;11.678;2023-05-07T06:06:54;7.10;;;4.50;;
43628;SDS011;56545;48.224;11.678;2023-05-07T06:09:21;6.45;;;4.43;;
43628;SDS011;56545;48.224;11.678;2023-05-07T06:11:47;8.52;;;6.35;;
43628;SDS011;56545;48.224;11.678;2023-05-07T06:14:13;8.43;;;5.72;;
43628;SDS011;56545;48.224;11.678;2023-05-07T06:16:39;9.93;;;5.65;;
43628;SDS011;56545;48.224;11.678;2023-05-07T06:19:05;9.77;;;6.10;;
43628;SDS011;56545;48.224;11.678;2023-05-07T06:21:31;8.85;;;6.38;;
43628;SDS011;56545;48.224;11.678;2023-05-07T06:23:57;9.10;;;6.38;;
43628;SDS011;56545;48.224;11.678;2023-05-07T06:26:23;9.80;;;7.00;;
43628;SDS011;56545;48.224;11.678;2023-05-07T06:28:49;8.77;;;6.05;;
43628;SDS011;56545;48.224;11.678;2023-05-07T06:31:15;10.45;;;6.60;;
43628;SDS011;56545;48.224;11.678;2023-05-07T06:33:45;8.68;;;6.30;;
43628;SDS011;56545;48.224;11.678;2023-05-07T06:36:11;8.43;;;6.00;;
43628;SDS011;56545;48.224;11.678;2023-05-07T06:38:37;9.00;;;5.85;;
43628;SDS011;56545;48.224;11.678;2023-05-07T06:41:05;8.02;;;5.35;;
43628;SDS011;56545;48.224;11.678;2023-05-07T06:43:31;8.00;;;5.35;;
43628;SDS011;56545;48.224;11.678;2023-05-07T06:45:57;7.55;;;5.47;;
43628;SDS011;56545;48.224;11.678;2023-05-07T06:48:23;8.65;;;5.50;;
43628;SDS011;56545;48.224;11.678;2023-05-07T06:50:49;8.32;;;4.90;;
43628;SDS011;56545;48.224;11.678;2023-05-07T06:53:15;9.02;;;5.18;;
43628;SDS011;56545;48.224;11.678;2023-05-07T06:55:41;7.65;;;4.50;;
43628;SDS011;56545;48.224;11.678;2023-05-07T06:58:07;8.13;;;4.85;;
43628;SDS011;56545;48.224;11.678;2023-05-07T07:00:33;7.82;;;4.85;;
43628;SDS011;56545;48.224;11.678;2023-05-07T07:02:59;7.82;;;4.57;;
43628;SDS011;56545;48.224;11.678;2023-05-07T07:05:25;6.95;;;4.47;;
43628;SDS011;56545;48.224;11.678;2023-05-07T07:07:51;6.75;;;4.45;;
43628;SDS011;56545;48.224;11.678;2023-05-07T07:10:23;8.63;;;5.32;;
43628;SDS011;56545;48.224;11.678;2023-05-07T07:12:49;7.85;;;4.45;;
43628;SDS011;56545;48.224;11.678;2023-05-07T07:15:17;7.78;;;5.03;;
43628;SDS011;56545;48.224;11.678;2023-05-07T07:17:45;8.40;;;4.80;;
43628;SDS011;56545;48.224;11.678;2023-05-07T07:20:11;7.72;;;4.72;;
43628;SDS011;56545;48.224;11.678;2023-05-07T07:22:38;7.93;;;4.47;;
43628;SDS011;56545;48.224;11.678;2023-05-07T07:25:04;7.15;;;4.75;;
43628;SDS011;56545;48.224;11.678;2023-05-07T07:27:30;9.15;;;4.00;;
43628;SDS011;56545;48.224;11.678;2023-05-07T07:29:56;8.45;;;4.28;;
43628;SDS011;56545;48.224;11.678;2023-05-07T07:32:21;7.82;;;4.30;;
43628;SDS011;56545;48.224;11.678;2023-05-07T07:34:47;7.70;;;4.40;;
43628;SDS011;56545;48.224;11.678;2023-05-07T07:37:13;7.43;;;4.70;;
43628;SDS011;56545;48.224;11.678;2023-05-07T07:39:39;7.82;;;4.90;;
43628;SDS011;56545;48.224;11.678;2023-05-07T07:42:06;7.07;;;4.47;;
43628;SDS011;56545;48.224;11.678;2023-05-07T07:44:32;6.93;;;4.57;;
43628;SDS011;56545;48.224;11.678;2023-05-07T07:46:57;7.28;;;4.60;;
43628;SDS011;56545;48.224;11.678;2023-05-07T07:49:23;7.40;;;4.30;;
43628;SDS011;56545;48.224;11.678;2023-05-07T07:51:49;7.50;;;4.20;;
43628;SDS011;56545;48.224;11.678;2023-05-07T07:54:16;6.80;;;4.00;;
43628;SDS011;56545;48.224;11.678;2023-05-07T07:56:42;7.78;;;3.90;;
43628;SDS011;56545;48.224;11.678;2023-05-07T07:59:07;6.10;;;3.92;;
43628;SDS011;56545;48.224;11.678;2023-05-07T08:01:34;6.95;;;3.88;;
43628;SDS011;56545;48.224;11.678;2023-05-07T08:04:00;6.55;;;3.60;;
43628;SDS011;56545;48.224;11.678;2023-05-07T08:06:28;7.55;;;4.03;;
43628;SDS011;56545;48.224;11.678;2023-05-07T08:08:54;9.05;;;4.10;;
43628;SDS011;56545;48.224;11.678;2023-05-07T08:11:20;6.50;;;3.90;;
43628;SDS011;56545;48.224;11.678;2023-05-07T08:13:46;7.57;;;4.30;;
43628;SDS011;56545;48.224;11.678;2023-05-07T08:16:12;6.63;;;3.78;;
43628;SDS011;56545;48.224;11.678;2023-05-07T08:18:39;6.60;;;4.38;;
43628;SDS011;56545;48.224;11.678;2023-05-07T08:21:04;6.43;;;3.88;;
43628;SDS011;56545;48.224;11.678;2023-05-07T08:23:30;7.88;;;3.83;;
43628;SDS011;56545;48.224;11.678;2023-05-07T08:25:56;6.55;;;4.00;;
43628;SDS011;56545;48.224;11.678;2023-05-07T08:28:22;5.85;;;3.80;;
43628;SDS011;56545;48.224;11.678;2023-05-07T08:30:49;5.88;;;3.47;;
43628;SDS011;56545;48.224;11.678;2023-05-07T08:33:15;8.15;;;3.53;;
43628;SDS011;56545;48.224;11.678;2023-05-07T08:35:41;6.05;;;3.50;;
43628;SDS011;56545;48.224;11.678;2023-05-07T08:38:07;5.85;;;3.47;;
43628;SDS011;56545;48.224;11.678;2023-05-07T08:40:36;6.57;;;4.10;;
43628;SDS011;56545;48.224;11.678;2023-05-07T08:43:03;4.78;;;3.17;;
43628;SDS011;56545;48.224;11.678;2023-05-07T08:45:31;5.80;;;3.10;;
43628;SDS011;56545;48.224;11.678;2023-05-07T08:47:59;5.22;;;3.20;;
43628;SDS011;56545;48.224;11.678;2023-05-07T08:50:30;5.45;;;2.85;;
43628;SDS011;56545;48.224;11.678;2023-05-07T08:52:56;6.30;;;3.85;;
43628;SDS011;56545;48.224;11.678;2023-05-07T08:55:22;5.43;;;3.78;;
43628;SDS011;56545;48.224;11.678;2023-05-07T08:57:49;5.80;;;3.40;;
43628;SDS011;56545;48.224;11.678;2023-05-07T09:00:17;6.38;;;3.67;;
43628;SDS011;56545;48.224;11.678;2023-05-07T09:02:43;6.95;;;4.38;;
43628;SDS011;56545;48.224;11.678;2023-05-07T09:05:09;6.15;;;3.58;;
43628;SDS011;56545;48.224;11.678;2023-05-07T09:07:35;7.40;;;3.80;;
43628;SDS011;56545;48.224;11.678;2023-05-07T09:10:02;5.05;;;3.10;;
43628;SDS011;56545;48.224;11.678;2023-05-07T09:12:29;8.82;;;5.00;;
43628;SDS011;56545;48.224;11.678;2023-05-07T09:14:55;5.47;;;3.08;;
43628;SDS011;56545;48.224;11.678;2023-05-07T09:17:21;5.88;;;3.50;;
43628;SDS011;56545;48.224;11.678;2023-05-07T09:19:47;5.22;;;2.90;;
43628;SDS011;56545;48.224;11.678;2023-05-07T09:22:13;6.95;;;3.00;;
43628;SDS011;56545;48.224;11.678;2023-05-07T09:24:39;6.60;;;4.00;;
43628;SDS011;56545;48.224;11.678;2023-05-07T09:27:05;6.68;;;4.47;;
43628;SDS011;56545;48.224;11.678;2023-05-07T09:29:33;7.07;;;4.28;;
43628;SDS011;56545;48.224;11.678;2023-05-07T09:32:03;6.65;;;3.47;;
43628;SDS011;56545;48.224;11.678;2023-05-07T09:34:30;5.30;;;3.15;;
43628;SDS011;56545;48.224;11.678;2023-05-07T09:36:58;6.63;;;3.25;;
43628;SDS011;56545;48.224;11.678;2023-05-07T09:42:10;5.88;;;3.80;;
43628;SDS011;56545;48.224;11.678;2023-05-07T09:44:37;5.55;;;3.42;;
43628;SDS011;56545;48.224;11.678;2023-05-07T09:47:06;5.10;;;3.28;;
43628;SDS011;56545;48.224;11.678;2023-05-07T09:49:36;4.88;;;2.97;;
43628;SDS011;56545;48.224;11.678;2023-05-07T09:52:07;5.60;;;2.67;;
43628;SDS011;56545;48.224;11.678;2023-05-07T09:54:35;5.05;;;2.80;;
43628;SDS011;56545;48.224;11.678;2023-05-07T09:57:03;6.10;;;2.83;;
43628;SDS011;56545;48.224;11.678;2023-05-07T09:59:31;4.63;;;2.75;;
43628;SDS011;56545;48.224;11.678;2023-05-07T10:01:58;5.68;;;2.97;;
43628;SDS011;56545;48.224;11.678;2023-05-07T10:04:25;6.82;;;2.88;;
43628;SDS011;56545;48.224;11.678;2023-05-07T10:06:51;5.05;;;2.90;;
43628;SDS011;56545;48.224;11.678;2023-05-07T10:09:18;5.88;;;3.25;;
43628;SDS011;56545;48.224;11.678;2023-05-07T10:11:44;4.55;;;2.63;;
43628;SDS011;56545;48.224;11.678;2023-05-07T10:14:13;4.57;;;2.60;;
43628;SDS011;56545;48.224;11.678;2023-05-07T10:16:39;4.53;;;2.25;;
43628;SDS011;56545;48.224;11.678;2023-05-07T10:19:07;4.47;;;2.50;;
43628;SDS011;56545;48.224;11.678;2023-05-07T10:21:36;3.85;;;2.13;;
43628;SDS011;56545;48.224;11.678;2023-05-07T10:24:04;4.85;;;2.28;;
43628;SDS011;56545;48.224;11.678;2023-05-07T10:26:45;4.15;;;2.13;;
43628;SDS011;56545;48.224;11.678;2023-05-07T10:29:15;5.70;;;2.70;;
43628;SDS011;56545;48.224;11.678;2023-05-07T10:34:28;4.63;;;2.50;;
43628;SDS011;56545;48.224;11.678;2023-05-07T10:39:25;5.35;;;3.20;;
43628;SDS011;56545;48.224;11.678;2023-05-07T10:41:51;5.43;;;2.83;;
43628;SDS011;56545;48.224;11.678;2023-05-07T10:44:30;5.78;;;2.58;;
43628;SDS011;56545;48.224;11.678;2023-05-07T10:47:12;5.72;;;2.85;;
43628;SDS011;56545;48.224;11.678;2023-05-07T10:52:14;4.60;;;2.30;;
43628;SDS011;56545;48.224;11.678;2023-05-07T10:54:41;4.95;;;2.40;;
43628;SDS011;56545;48.224;11.678;2023-05-07T10:59:55;3.88;;;2.30;;
43628;SDS011;56545;48.224;11.678;2023-05-07T11:02:21;4.10;;;2.30;;
43628;SDS011;56545;48.224;11.678;2023-05-07T11:05:18;7.43;;;3.25;;
43628;SDS011;56545;48.224;11.678;2023-05-07T11:07:54;5.60;;;2.55;;
43628;SDS011;56545;48.224;11.678;2023-05-07T11:10:20;4.57;;;2.17;;
43628;SDS011;56545;48.224;11.678;2023-05-07T11:12:47;5.03;;;2.55;;
43628;SDS011;56545;48.224;11.678;2023-05-07T11:15:15;4.72;;;2.30;;
43628;SDS011;56545;48.224;11.678;2023-05-07T11:17:58;3.67;;;2.05;;
43628;SDS011;56545;48.224;11.678;2023-05-07T11:26:04;5.70;;;2.17;;
43628;SDS011;56545;48.224;11.678;2023-05-07T11:28:32;3.55;;;2.05;;
43628;SDS011;56545;48.224;11.678;2023-05-07T11:31:02;4.47;;;2.20;;
43628;SDS011;56545;48.224;11.678;2023-05-07T11:33:32;4.60;;;2.40;;
43628;SDS011;56545;48.224;11.678;2023-05-07T11:35:59;4.65;;;1.50;;
43628;SDS011;56545;48.224;11.678;2023-05-07T11:38:26;3.55;;;1.60;;
43628;SDS011;56545;48.224;11.678;2023-05-07T11:40:55;5.63;;;1.70;;
43628;SDS011;56545;48.224;11.678;2023-05-07T11:43:23;3.20;;;1.80;;
43628;SDS011;56545;48.224;11.678;2023-05-07T11:45:49;3.30;;;1.70;;
43628;SDS011;56545;48.224;11.678;2023-05-07T11:48:15;5.05;;;1.60;;
43628;SDS011;56545;48.224;11.678;2023-05-07T11:50:51;3.78;;;1.50;;
43628;SDS011;56545;48.224;11.678;2023-05-07T11:53:18;3.83;;;1.50;;
43628;SDS011;56545;48.224;11.678;2023-05-07T11:55:45;3.60;;;1.70;;
43628;SDS011;56545;48.224;11.678;2023-05-07T11:58:12;3.92;;;1.83;;
43628;SDS011;56545;48.224;11.678;2023-05-07T12:00:48;3.53;;;1.70;;
43628;SDS011;56545;48.224;11.678;2023-05-07T12:03:15;4.38;;;1.50;;
43628;SDS011;56545;48.224;11.678;2023-05-07T12:05:41;2.63;;;1.60;;
43628;SDS011;56545;48.224;11.678;2023-05-07T12:08:07;2.22;;;1.20;;
43628;SDS011;56545;48.224;11.678;2023-05-07T12:10:33;2.80;;;1.27;;
43628;SDS011;56545;48.224;11.678;2023-05-07T12:12:59;3.03;;;1.00;;
43628;SDS011;56545;48.224;11.678;2023-05-07T12:15:25;2.65;;;1.00;;
43628;SDS011;56545;48.224;11.678;2023-05-07T12:17:52;1.95;;;0.98;;
43628;SDS011;56545;48.224;11.678;2023-05-07T12:20:18;3.53;;;1.17;;
43628;SDS011;56545;48.224;11.678;2023-05-07T12:22:44;2.50;;;1.20;;
43628;SDS011;56545;48.224;11.678;2023-05-07T12:25:11;1.63;;;1.00;;
43628;SDS011;56545;48.224;11.678;2023-05-07T12:27:40;3.33;;;1.35;;
43628;SDS011;56545;48.224;11.678;2023-05-07T12:30:06;3.28;;;1.25;;
43628;SDS011;56545;48.224;11.678;2023-05-07T12:32:35;2.67;;;1.20;;
43628;SDS011;56545;48.224;11.678;2023-05-07T12:35:01;3.17;;;1.20;;
43628;SDS011;56545;48.224;11.678;2023-05-07T12:37:28;3.10;;;1.50;;
43628;SDS011;56545;48.224;11.678;2023-05-07T12:40:03;2.67;;;1.60;;
43628;SDS011;56545;48.224;11.678;2023-05-07T12:42:40;4.28;;;1.80;;
43628;SDS011;56545;48.224;11.678;2023-05-07T12:45:08;5.90;;;1.77;;
43628;SDS011;56545;48.224;11.678;2023-05-07T12:47:37;3.15;;;1.60;;
43628;SDS011;56545;48.224;11.678;2023-05-07T12:50:07;3.58;;;1.70;;
43628;SDS011;56545;48.224;11.678;2023-05-07T12:52:33;4.25;;;1.40;;
43628;SDS011;56545;48.224;11.678;2023-05-07T12:55:06;4.60;;;1.40;;
43628;SDS011;56545;48.224;11.678;2023-05-07T12:57:39;4.03;;;1.95;;
43628;SDS011;56545;48.224;11.678;2023-05-07T13:00:10;3.95;;;2.03;;
43628;SDS011;56545;48.224;11.678;2023-05-07T13:02:38;3.28;;;1.73;;
43628;SDS011;56545;48.224;11.678;2023-05-07T13:05:05;3.92;;;1.98;;
43628;SDS011;56545;48.224;11.678;2023-05-07T13:07:32;3.25;;;1.65;;
43628;SDS011;56545;48.224;11.678;2023-05-07T13:09:58;3.60;;;1.80;;
43628;SDS011;56545;48.224;11.678;2023-05-07T13:12:24;4.15;;;1.98;;
43628;SDS011;56545;48.224;11.678;2023-05-07T13:14:49;5.90;;;1.80;;
43628;SDS011;56545;48.224;11.678;2023-05-07T13:17:15;4.00;;;1.70;;
43628;SDS011;56545;48.224;11.678;2023-05-07T13:19:41;4.30;;;1.92;;
43628;SDS011;56545;48.224;11.678;2023-05-07T13:22:07;4.78;;;2.17;;
43628;SDS011;56545;48.224;11.678;2023-05-07T13:24:33;4.88;;;2.30;;
43628;SDS011;56545;48.224;11.678;2023-05-07T13:26:59;4.13;;;1.88;;
43628;SDS011;56545;48.224;11.678;2023-05-07T13:29:25;5.22;;;2.17;;
43628;SDS011;56545;48.224;11.678;2023-05-07T13:31:55;5.07;;;2.10;;
43628;SDS011;56545;48.224;11.678;2023-05-07T13:34:22;5.25;;;1.80;;
43628;SDS011;56545;48.224;11.678;2023-05-07T13:36:47;5.57;;;2.22;;
43628;SDS011;56545;48.224;11.678;2023-05-07T13:39:13;4.22;;;2.00;;
43628;SDS011;56545;48.224;11.678;2023-05-07T13:41:40;3.92;;;1.98;;
43628;SDS011;56545;48.224;11.678;2023-05-07T13:44:06;5.95;;;2.17;;
43628;SDS011;56545;48.224;11.678;2023-05-07T13:46:32;4.07;;;2.45;;
43628;SDS011;56545;48.224;11.678;2023-05-07T13:48:58;3.33;;;1.80;;
43628;SDS011;56545;48.224;11.678;2023-05-07T13:51:24;3.72;;;2.00;;
43628;SDS011;56545;48.224;11.678;2023-05-07T13:53:50;3.95;;;1.90;;
43628;SDS011;56545;48.224;11.678;2023-05-07T13:56:17;4.05;;;2.25;;
43628;SDS011;56545;48.224;11.678;2023-05-07T13:58:43;4.25;;;1.90;;
43628;SDS011;56545;48.224;11.678;2023-05-07T14:01:09;3.30;;;1.75;;
43628;SDS011;56545;48.224;11.678;2023-05-07T14:03:35;4.80;;;2.10;;
43628;SDS011;56545;48.224;11.678;2023-05-07T14:06:02;4.10;;;1.90;;
43628;SDS011;56545;48.224;11.678;2023-05-07T14:08:28;4.32;;;2.17;;
43628;SDS011;56545;48.224;11.678;2023-05-07T14:10:54;3.33;;;1.80;;
43628;SDS011;56545;48.224;11.678;2023-05-07T14:13:20;4.45;;;1.83;;
43628;SDS011;56545;48.224;11.678;2023-05-07T14:15:46;3.65;;;1.80;;
43628;SDS011;56545;48.224;11.678;2023-05-07T14:18:14;5.00;;;1.80;;
43628;SDS011;56545;48.224;11.678;2023-05-07T14:20:40;2.72;;;1.75;;
43628;SDS011;56545;48.224;11.678;2023-05-07T14:23:08;2.42;;;1.63;;
43628;SDS011;56545;48.224;11.678;2023-05-07T14:25:34;4.47;;;1.80;;
43628;SDS011;56545;48.224;11.678;2023-05-07T14:28:00;4.40;;;1.73;;
43628;SDS011;56545;48.224;11.678;2023-05-07T14:30:26;4.72;;;1.90;;
43628;SDS011;56545;48.224;11.678;2023-05-07T14:32:52;5.10;;;2.20;;
43628;SDS011;56545;48.224;11.678;2023-05-07T14:35:18;4.03;;;1.73;;
43628;SDS011;56545;48.224;11.678;2023-05-07T14:37:44;2.70;;;1.48;;
43628;SDS011;56545;48.224;11.678;2023-05-07T14:40:10;3.40;;;1.70;;
43628;SDS011;56545;48.224;11.678;2023-05-07T14:42:36;3.80;;;1.60;;
43628;SDS011;56545;48.224;11.678;2023-05-07T14:45:02;6.75;;;1.88;;
43628;SDS011;56545;48.224;11.678;2023-05-07T14:47:28;2.75;;;1.65;;
43628;SDS011;56545;48.224;11.678;2023-05-07T14:49:54;3.50;;;1.50;;
43628;SDS011;56545;48.224;11.678;2023-05-07T14:52:22;3.05;;;1.40;;